Time;durP1;ratioP1;P1;durP2;ratioP2;P2;SDS_P1;SDS_P2;PMS_P1;PMS_P2;Temp;Humidity;BMP_temperature;BMP_pressure;BME280_temperature;BME280_humidity;BME280_pressure;Samples;Min_cycle;Max_cycle;Signal;HPM_P1;HPM_P2
2021/10/25 00:01:24;;;;;;;6.67;6.10;;;;;;;-1.29;100.00;98682.72;4959510;28;20592;-69
2021/10/25 00:03:54;;;;;;;6.90;6.30;;;;;;;-1.31;100.00;98687.16;4953110;28;20463;-69
2021/10/25 00:06:22;;;;;;;9.67;7.70;;;;;;;-1.43;100.00;98685.94;4927012;28;20226;-68
2021/10/25 00:08:50;;;;;;;9.23;6.53;;;;;;;-1.44;100.00;98684.25;4945632;28;20218;-68
2021/10/25 00:11:18;;;;;;;7.90;6.93;;;;;;;-1.48;100.00;98682.72;4953418;28;20731;-69
2021/10/25 00:13:46;;;;;;;7.47;6.57;;;;;;;-1.54;100.00;98676.03;4951775;28;20215;-69
2021/10/25 00:16:14;;;;;;;8.23;7.43;;;;;;;-1.56;100.00;98671.81;4942214;28;20551;-68
2021/10/25 00:18:42;;;;;;;7.13;6.43;;;;;;;-1.65;100.00;98684.31;4954482;28;20293;-70
2021/10/25 00:21:12;;;;;;;7.53;6.67;;;;;;;-1.66;100.00;98689.63;4925272;28;20466;-69
2021/10/25 00:23:40;;;;;;;8.67;6.50;;;;;;;-1.72;100.00;98690.72;4952904;28;20221;-68
2021/10/25 00:26:08;;;;;;;7.10;6.53;;;;;;;-1.66;100.00;98687.00;4955944;28;20238;-69
2021/10/25 00:28:36;;;;;;;7.30;6.60;;;;;;;-1.69;100.00;98687.97;4954714;28;20758;-69
2021/10/25 00:31:05;;;;;;;7.67;6.80;;;;;;;-1.68;100.00;98687.06;4945027;28;20217;-69
2021/10/25 00:33:33;;;;;;;6.97;6.27;;;;;;;-1.73;100.00;98693.38;4957509;28;20320;-69
2021/10/25 00:36:01;;;;;;;6.70;6.00;;;;;;;-1.73;100.00;98682.97;4946643;28;20969;-69
2021/10/25 00:38:31;;;;;;;7.40;6.10;;;;;;;-1.81;100.00;98681.56;4903878;28;20211;-69
2021/10/25 00:40:59;;;;;;;6.70;6.17;;;;;;;-1.90;100.00;98682.81;4955872;28;20281;-69
2021/10/25 00:43:28;;;;;;;8.27;6.20;;;;;;;-1.86;100.00;98678.34;4951812;28;20647;-69
2021/10/25 00:45:56;;;;;;;6.83;6.20;;;;;;;-1.87;100.00;98681.03;4948008;28;20341;-70
2021/10/25 00:48:25;;;;;;;7.53;5.93;;;;;;;-1.90;100.00;98682.00;4956168;28;20730;-69
2021/10/25 00:50:53;;;;;;;7.33;6.40;;;;;;;-1.84;100.00;98676.53;4941858;28;20931;-69
2021/10/25 00:53:21;;;;;;;6.23;5.63;;;;;;;-1.84;100.00;98667.91;4928147;28;20710;-69
2021/10/25 00:55:51;;;;;;;6.73;6.07;;;;;;;-1.84;100.00;98671.31;4956301;28;20224;-69
2021/10/25 00:58:19;;;;;;;6.87;6.27;;;;;;;-1.88;100.00;98674.97;4957449;28;20229;-68
2021/10/25 01:00:47;;;;;;;6.37;5.73;;;;;;;-1.93;100.00;98674.34;4954481;28;20254;-69
2021/10/25 01:03:16;;;;;;;6.83;6.23;;;;;;;-1.95;100.00;98673.56;4956493;28;20659;-69
2021/10/25 01:05:44;;;;;;;6.10;5.47;;;;;;;-1.98;100.00;98673.69;4943159;28;20316;-69
2021/10/25 01:08:12;;;;;;;7.60;6.90;;;;;;;-2.02;100.00;98670.38;4955621;28;20234;-68
2021/10/25 01:10:42;;;;;;;8.80;6.50;;;;;;;-2.00;100.00;98667.75;4922967;28;20214;-69
2021/10/25 01:13:12;;;;;;;7.77;6.27;;;;;;;-1.93;100.00;98667.38;4956214;28;20771;-69
2021/10/25 01:15:40;;;;;;;6.27;5.77;;;;;;;-1.95;100.00;98673.56;4952917;28;20230;-67
2021/10/25 01:18:08;;;;;;;6.73;6.00;;;;;;;-2.04;100.00;98667.88;4954465;28;20759;-69
2021/10/25 01:20:38;;;;;;;9.47;6.57;;;;;;;-2.09;100.00;98668.97;4951670;28;20202;-69
2021/10/25 01:23:07;;;;;;;7.40;6.70;;;;;;;-2.15;100.00;98667.47;4941509;28;20235;-69
2021/10/25 01:25:36;;;;;;;7.43;6.23;;;;;;;-2.19;100.00;98665.94;4922710;28;20656;-70
2021/10/25 01:28:04;;;;;;;7.23;5.87;;;;;;;-2.23;100.00;98672.16;4955206;28;20229;-70
2021/10/25 01:30:32;;;;;;;6.77;6.17;;;;;;;-2.21;100.00;98667.75;4953888;28;20214;-70
2021/10/25 01:33:00;;;;;;;8.50;7.00;;;;;;;-2.21;100.00;98672.94;4955455;28;20477;-71
2021/10/25 01:35:28;;;;;;;6.57;5.97;;;;;;;-2.23;100.00;98669.56;4952432;28;20679;-70
2021/10/25 01:38:00;;;;;;;6.73;6.17;;;;;;;-2.22;100.00;98673.84;4945424;28;20336;-70
2021/10/25 01:40:28;;;;;;;8.03;5.47;;;;;;;-2.25;100.00;98668.81;4923294;28;20218;-69
2021/10/25 01:42:56;;;;;;;5.80;5.40;;;;;;;-2.29;100.00;98673.28;4952429;28;20320;-70
2021/10/25 01:45:25;;;;;;;6.27;5.77;;;;;;;-2.34;100.00;98668.28;4958678;28;20226;-70
2021/10/25 01:47:53;;;;;;;7.30;6.60;;;;;;;-2.40;100.00;98671.16;4952895;28;20222;-70
2021/10/25 01:50:21;;;;;;;5.87;4.90;;;;;;;-2.42;100.00;98672.97;4956881;28;20511;-69
2021/10/25 01:52:49;;;;;;;6.53;5.73;;;;;;;-2.41;100.00;98676.41;4940128;28;20210;-69
2021/10/25 01:55:19;;;;;;;5.37;4.87;;;;;;;-2.46;100.00;98674.03;4923027;28;20233;-69
2021/10/25 01:57:47;;;;;;;8.63;6.87;;;;;;;-2.45;100.00;98672.25;4943509;28;20412;-69
2021/10/25 02:00:15;;;;;;;5.93;5.43;;;;;;;-2.45;100.00;98667.06;4951521;28;20225;-70
2021/10/25 02:02:43;;;;;;;7.07;6.40;;;;;;;-2.45;100.00;98670.53;4949223;28;20203;-69
2021/10/25 02:05:11;;;;;;;6.60;5.93;;;;;;;-2.48;100.00;98670.63;4950716;28;20251;-69
2021/10/25 02:07:39;;;;;;;7.33;5.80;;;;;;;-2.48;100.00;98661.09;4945471;28;20238;-69
2021/10/25 02:10:09;;;;;;;7.60;6.90;;;;;;;-2.52;100.00;98663.88;4928984;28;20256;-70
2021/10/25 02:12:39;;;;;;;6.33;5.73;;;;;;;-2.44;100.00;98656.63;4945763;28;20297;-68
2021/10/25 02:15:08;;;;;;;6.40;5.80;;;;;;;-2.43;100.00;98657.47;4951345;28;20242;-69
2021/10/25 02:17:36;;;;;;;6.27;5.73;;;;;;;-2.41;100.00;98656.50;4949479;28;20696;-67
2021/10/25 02:20:05;;;;;;;6.20;5.57;;;;;;;-2.34;100.00;98663.09;4953523;28;20210;-69
2021/10/25 02:22:33;;;;;;;5.77;5.27;;;;;;;-2.35;100.00;98657.97;4951409;28;20798;-69
2021/10/25 02:25:01;;;;;;;6.67;5.93;;;;;;;-2.42;100.00;98653.94;4936191;28;20483;-72
2021/10/25 02:27:30;;;;;;;6.30;5.70;;;;;;;-2.47;100.00;98651.53;4932293;28;20778;-70
2021/10/25 02:30:00;;;;;;;7.17;5.87;;;;;;;-2.47;100.00;98648.94;4955679;28;20305;-71
2021/10/25 02:32:28;;;;;;;8.00;5.90;;;;;;;-2.38;100.00;98643.38;4948710;28;20514;-71
2021/10/25 02:34:56;;;;;;;5.97;5.33;;;;;;;-2.36;100.00;98643.28;4953194;28;20466;-69
2021/10/25 02:37:24;;;;;;;6.13;5.50;;;;;;;-2.43;100.00;98642.75;4950043;28;20492;-69
2021/10/25 02:39:53;;;;;;;5.93;5.50;;;;;;;-2.43;100.00;98636.69;4940161;28;20210;-73
2021/10/25 02:42:21;;;;;;;6.17;5.67;;;;;;;-2.45;100.00;98639.38;4919832;28;20230;-73
2021/10/25 02:44:49;;;;;;;5.87;5.37;;;;;;;-2.39;100.00;98635.63;4947688;28;20968;-73
2021/10/25 02:47:18;;;;;;;5.57;5.07;;;;;;;-2.44;100.00;98632.41;4910759;28;20249;-74
2021/10/25 02:49:46;;;;;;;6.13;5.67;;;;;;;-2.44;100.00;98635.00;4945706;28;20206;-69
2021/10/25 02:52:15;;;;;;;6.33;5.83;;;;;;;-2.50;100.00;98630.91;4947540;28;20217;-70
2021/10/25 02:54:43;;;;;;;6.17;5.57;;;;;;;-2.53;100.00;98633.63;4942791;28;20229;-68
2021/10/25 02:57:11;;;;;;;5.43;4.93;;;;;;;-2.53;100.00;98634.50;4949279;28;20679;-70
2021/10/25 02:59:39;;;;;;;5.67;5.17;;;;;;;-2.59;100.00;98626.97;4945130;28;20207;-70
2021/10/25 03:02:07;;;;;;;5.83;5.23;;;;;;;-2.64;100.00;98636.72;4922766;28;20290;-70
2021/10/25 03:04:37;;;;;;;5.60;5.07;;;;;;;-2.66;100.00;98643.69;4952208;28;20504;-70
2021/10/25 03:07:05;;;;;;;6.23;5.63;;;;;;;-2.68;100.00;98648.97;4952688;28;20230;-69
2021/10/25 03:09:33;;;;;;;5.37;4.97;;;;;;;-2.62;100.00;98642.69;4943192;28;20214;-70
2021/10/25 03:12:01;;;;;;;5.60;5.10;;;;;;;-2.60;100.00;98640.00;4953478;28;20225;-70
2021/10/25 03:14:30;;;;;;;5.83;5.33;;;;;;;-2.60;100.00;98648.66;4950782;28;20672;-69
2021/10/25 03:16:58;;;;;;;5.30;4.83;;;;;;;-2.53;100.00;98639.69;4924362;28;20977;-70
2021/10/25 03:19:27;;;;;;;5.20;4.80;;;;;;;-2.39;100.00;98630.44;4956522;28;20206;-70
2021/10/25 03:21:56;;;;;;;5.17;4.77;;;;;;;-2.33;100.00;98627.59;4953394;28;20957;-69
2021/10/25 03:24:24;;;;;;;6.50;5.50;;;;;;;-2.34;100.00;98628.50;4954699;28;20214;-70
2021/10/25 03:26:52;;;;;;;5.70;5.20;;;;;;;-2.24;100.00;98632.41;4946209;28;20234;-69
2021/10/25 03:29:20;;;;;;;5.80;5.27;;;;;;;-2.19;100.00;98637.38;4959543;28;20213;-70
2021/10/25 03:31:50;;;;;;;5.93;5.43;;;;;;;-2.19;100.00;98627.84;4954390;28;20436;-69
2021/10/25 03:34:19;;;;;;;6.13;4.90;;;;;;;-2.09;100.00;98632.63;4928569;28;20328;-70
2021/10/25 03:36:49;;;;;;;4.93;4.63;;;;;;;-2.14;100.00;98632.81;4951443;28;20915;-70
2021/10/25 03:39:22;;;;;;;5.97;5.40;;;;;;;-2.19;100.00;98634.78;4957862;28;20969;-70
2021/10/25 03:41:52;;;;;;;5.47;4.97;;;;;;;-2.15;100.00;98627.69;4940614;28;20210;-69
2021/10/25 03:44:23;;;;;;;6.10;4.93;;;;;;;-2.04;100.00;98622.84;4958715;28;20210;-70
2021/10/25 03:46:55;;;;;;;5.50;4.90;;;;;;;-2.02;100.00;98628.81;4955549;28;20366;-69
2021/10/25 03:49:26;;;;;;;5.30;4.90;;;;;;;-2.05;100.00;98626.38;4923937;28;20242;-70
2021/10/25 03:51:54;;;;;;;5.03;4.63;;;;;;;-2.19;100.00;98617.44;4950441;28;20483;-70
2021/10/25 03:54:33;;;;;;;5.10;4.70;;;;;;;-2.07;100.00;98623.00;4958271;28;20254;-70
2021/10/25 04:00:31;;;;;;;4.73;4.47;;;;;;;-2.19;100.00;98616.59;5079054;27;20611;-70
2021/10/25 04:28:11;;;;;;;6.20;5.60;;;;;;;-2.43;100.00;98610.72;5052071;28;20674;-67
2021/10/25 04:30:39;;;;;;;6.43;5.83;;;;;;;-2.39;100.00;98613.13;5066692;28;20217;-69
2021/10/25 04:33:09;;;;;;;7.57;5.90;;;;;;;-2.34;100.00;98605.97;5071591;28;20218;-67
2021/10/25 04:35:37;;;;;;;6.20;5.70;;;;;;;-2.30;100.00;98613.63;5040220;28;20475;-69
2021/10/25 04:38:05;;;;;;;6.23;5.60;;;;;;;-2.35;100.00;98614.69;5051452;28;20252;-69
2021/10/25 04:40:34;;;;;;;9.60;6.53;;;;;;;-2.38;100.00;98613.97;5062375;28;20455;-68
2021/10/25 04:43:02;;;;;;;6.67;5.97;;;;;;;-2.43;100.00;98603.81;5061046;28;20233;-68
2021/10/25 04:45:30;;;;;;;6.93;6.30;;;;;;;-2.45;100.00;98602.16;5056293;28;20230;-69
2021/10/25 04:47:58;;;;;;;6.57;6.03;;;;;;;-2.48;100.00;98603.13;5067300;28;20654;-67
2021/10/25 04:50:27;;;;;;;6.33;5.80;;;;;;;-2.50;100.00;98599.75;5069426;28;20248;-74
2021/10/25 04:52:56;;;;;;;6.50;5.90;;;;;;;-2.52;100.00;98606.78;5036455;28;20322;-72
2021/10/25 04:55:24;;;;;;;5.70;5.20;;;;;;;-2.53;100.00;98616.31;5033973;28;20241;-75
2021/10/25 04:57:52;;;;;;;7.10;6.43;;;;;;;-2.55;100.00;98619.88;5059783;28;20241;-71
2021/10/25 05:00:20;;;;;;;7.33;6.47;;;;;;;-2.60;100.00;98625.28;5071002;28;20245;-73
2021/10/25 05:02:48;;;;;;;6.10;5.57;;;;;;;-2.66;100.00;98613.41;5058688;28;20237;-72
2021/10/25 05:05:16;;;;;;;9.60;7.07;;;;;;;-2.63;100.00;98615.88;5066886;28;20248;-71
2021/10/25 05:07:45;;;;;;;9.17;7.37;;;;;;;-2.64;100.00;98613.34;5070352;28;20210;-72
2021/10/25 05:10:13;;;;;;;7.53;6.77;;;;;;;-2.67;100.00;98616.91;5033064;28;20207;-76
2021/10/25 05:12:41;;;;;;;7.17;6.20;;;;;;;-2.69;100.00;98613.53;5037661;28;20222;-74
2021/10/25 05:15:09;;;;;;;7.53;6.87;;;;;;;-2.69;100.00;98617.88;5052188;28;20233;-71
2021/10/25 05:17:37;;;;;;;6.70;6.17;;;;;;;-2.71;100.00;98604.97;5042563;28;20207;-74
2021/10/25 05:20:06;;;;;;;6.10;5.60;;;;;;;-2.68;100.00;98616.97;5056038;28;20239;-73
2021/10/25 05:22:34;;;;;;;6.10;5.50;;;;;;;-2.67;100.00;98619.50;5053533;28;20211;-75
2021/10/25 05:25:10;;;;;;;5.73;5.33;;;;;;;-2.59;100.00;98618.34;5055063;28;20227;-74
2021/10/25 05:27:38;;;;;;;5.50;5.07;;;;;;;-2.57;100.00;98617.38;5022558;28;20461;-74
2021/10/25 05:30:06;;;;;;;6.43;5.80;;;;;;;-2.40;100.00;98621.84;5057206;28;20575;-71
2021/10/25 05:32:34;;;;;;;6.03;5.43;;;;;;;-2.41;100.00;98617.56;5043476;28;20735;-75
2021/10/25 05:35:03;;;;;;;6.83;6.20;;;;;;;-2.35;100.00;98624.22;5045957;28;20214;-75
2021/10/25 05:37:32;;;;;;;9.23;6.20;;;;;;;-2.00;100.00;98615.78;5057396;28;20207;-71
2021/10/25 05:40:00;;;;;;;7.20;6.50;;;;;;;-1.87;100.00;98618.66;5043667;28;20231;-73
2021/10/25 05:42:30;;;;;;;8.83;6.70;;;;;;;-1.91;100.00;98615.34;5023673;28;20218;-72
2021/10/25 05:44:58;;;;;;;7.93;7.23;;;;;;;-2.01;100.00;98619.28;5059596;28;20218;-71
2021/10/25 05:47:27;;;;;;;7.77;7.17;;;;;;;-2.01;100.00;98624.50;5054146;28;20215;-71
2021/10/25 05:49:55;;;;;;;7.97;7.17;;;;;;;-2.09;100.00;98620.44;5042991;28;20229;-73
2021/10/25 05:52:23;;;;;;;6.90;6.33;;;;;;;-2.02;100.00;98621.03;5055620;28;20571;-73
2021/10/25 05:54:52;;;;;;;8.47;7.10;;;;;;;-2.09;100.00;98619.63;4998926;28;20228;-72
2021/10/25 05:57:20;;;;;;;7.33;6.63;;;;;;;-2.04;100.00;98617.66;4982784;28;20334;-71
2021/10/25 05:59:50;;;;;;;7.07;6.43;;;;;;;-1.94;100.00;98620.69;4995351;28;20602;-72
2021/10/25 06:02:25;;;;;;;6.30;5.70;;;;;;;-1.96;100.00;98617.31;5014363;28;20211;-71
2021/10/25 06:04:53;;;;;;;7.33;6.43;;;;;;;-2.01;100.00;98616.69;5003807;28;20208;-69
2021/10/25 06:07:21;;;;;;;10.23;6.70;;;;;;;-2.04;100.00;98620.25;5010371;28;20716;-71
2021/10/25 06:09:49;;;;;;;7.30;6.60;;;;;;;-2.00;100.00;98608.00;5001819;28;20238;-72
2021/10/25 06:12:18;;;;;;;6.63;6.03;;;;;;;-2.01;100.00;98616.69;4978580;28;20243;-71
2021/10/25 06:14:47;;;;;;;7.77;6.67;;;;;;;-1.72;100.00;98615.34;5003636;28;20291;-72
2021/10/25 06:17:26;;;;;;;7.50;6.80;;;;;;;-1.81;100.00;98611.41;5015102;28;20204;-71
2021/10/25 06:19:54;;;;;;;6.80;6.13;;;;;;;-1.50;100.00;98616.97;5001608;28;20219;-71
2021/10/25 06:22:23;;;;;;;10.10;6.37;;;;;;;-1.22;100.00;98626.88;5006130;28;20205;-71
2021/10/25 06:24:51;;;;;;;8.87;8.07;;;;;;;-1.25;100.00;98605.38;5015172;28;20215;-73
2021/10/25 06:27:19;;;;;;;7.23;6.63;;;;;;;-1.12;100.00;98606.47;5001647;28;20207;-74
2021/10/25 06:29:46;;;;;;;7.57;6.47;;;;;;;-1.07;100.00;98614.88;4983358;28;20231;-70
2021/10/25 06:32:16;;;;;;;7.43;6.67;;;;;;;-1.22;100.00;98620.81;5005264;28;20441;-73
2021/10/25 06:34:47;;;;;;;8.57;7.63;;;;;;;-1.22;100.00;98618.22;5001813;28;20234;-68
2021/10/25 06:37:15;;;;;;;13.27;11.70;;;;;;;-1.22;100.00;98608.69;4995948;28;20239;-72
2021/10/25 06:39:50;;;;;;;13.37;12.13;;;;;;;-1.29;100.00;98625.50;5010174;28;20454;-73
2021/10/25 06:42:18;;;;;;;8.10;7.30;;;;;;;-1.19;100.00;98621.53;5003265;28;20212;-72
2021/10/25 06:44:49;;;;;;;11.70;7.17;;;;;;;-0.85;100.00;98615.59;4985078;28;20216;-74
2021/10/25 06:47:20;;;;;;;9.67;8.53;;;;;;;-0.91;100.00;98616.72;5014625;28;20623;-72
2021/10/25 06:49:48;;;;;;;10.10;9.10;;;;;;;-0.80;100.00;98611.81;5007462;28;20772;-73
2021/10/25 06:52:16;;;;;;;13.80;12.67;;;;;;;-0.77;100.00;98609.06;5010152;28;20223;-74
2021/10/25 06:54:44;;;;;;;12.03;9.07;;;;;;;-0.60;100.00;98612.59;5015767;28;20328;-72
2021/10/25 06:57:13;;;;;;;8.97;7.80;;;;;;;-0.49;100.00;98609.44;5002723;28;20208;-74
2021/10/25 06:59:41;;;;;;;8.50;7.07;;;;;;;-0.40;100.00;98608.09;4982965;28;21483;-74
2021/10/25 07:02:08;;;;;;;8.90;7.47;;;;;;;-0.23;100.00;98617.63;4981977;28;20759;-73
2021/10/25 07:04:39;;;;;;;7.33;6.50;;;;;;;-0.12;100.00;98630.09;5014482;28;20208;-72
2021/10/25 07:07:07;;;;;;;7.37;6.67;;;;;;;0.09;100.00;98639.41;5010417;28;20234;-73
2021/10/25 07:09:35;;;;;;;8.13;6.10;;;;;;;0.13;100.00;98642.69;5015540;28;20208;-74
2021/10/25 07:12:04;;;;;;;8.43;7.00;;;;;;;0.32;100.00;98646.91;5009242;28;20540;-72
2021/10/25 07:14:35;;;;;;;7.80;7.07;;;;;;;0.28;100.00;98628.84;5009730;28;20723;-73
2021/10/25 07:17:15;;;;;;;7.33;6.57;;;;;;;0.53;100.00;98621.44;4976898;28;20588;-73
2021/10/25 08:01:32;;;;;;;8.23;7.47;;;;;;;2.16;100.00;98659.03;5014364;28;20479;-73
2021/10/25 08:04:38;;;;;;;7.83;7.13;;;;;;;2.10;100.00;98648.97;5008586;28;20327;-71
2021/10/25 08:07:10;;;;;;;8.07;7.27;;;;;;;2.13;100.00;98633.09;4995760;28;20266;-71
2021/10/25 08:09:49;;;;;;;9.03;7.40;;;;;;;2.23;100.00;98638.56;5001809;28;20672;-73
2021/10/25 08:12:18;;;;;;;8.57;7.67;;;;;;;2.64;100.00;98639.53;5013780;28;20203;-72
2021/10/25 08:14:50;;;;;;;7.77;7.17;;;;;;;2.70;100.00;98650.47;5010793;28;20204;-74
2021/10/25 08:17:22;;;;;;;8.23;7.50;;;;;;;2.71;100.00;98652.13;5011850;28;20214;-73
2021/10/25 08:19:50;;;;;;;7.87;7.07;;;;;;;2.90;100.00;98650.94;5010300;28;20391;-73
2021/10/25 08:22:18;;;;;;;8.80;8.00;;;;;;;3.13;100.00;98648.63;4992875;28;20224;-74
2021/10/25 08:24:50;;;;;;;8.13;7.33;;;;;;;3.33;100.00;98649.91;5002430;28;20234;-74
2021/10/25 08:27:20;;;;;;;8.00;6.97;;;;;;;3.55;100.00;98640.59;5016832;28;20210;-71
2021/10/25 08:29:49;;;;;;;9.40;8.50;;;;;;;3.69;100.00;98640.53;5010865;28;20220;-74
2021/10/25 08:32:38;;;;;;;8.53;7.67;;;;;;;3.76;100.00;98620.81;5015935;28;20195;-72
2021/10/25 08:35:30;;;;;;;8.70;7.80;;;;;;;3.75;100.00;98616.50;5010057;28;20378;-71
2021/10/25 08:40:45;;;;;;;7.70;6.90;;;;;;;3.98;100.00;98645.56;5006386;28;20775;-74
2021/10/25 08:43:13;;;;;;;10.27;8.40;;;;;;;4.18;100.00;98633.69;5016653;28;20694;-73
2021/10/25 08:45:46;;;;;;;8.57;7.67;;;;;;;4.10;100.00;98616.78;5017962;28;20238;-73
2021/10/25 08:48:14;;;;;;;8.30;7.40;;;;;;;4.23;100.00;98622.84;5017989;28;20424;-75
2021/10/25 08:50:42;;;;;;;8.60;7.77;;;;;;;4.22;100.00;98639.53;5015473;28;20227;-73
2021/10/25 08:53:11;;;;;;;8.30;7.50;;;;;;;4.44;100.00;98648.53;4990063;28;20246;-72
2021/10/25 08:55:40;;;;;;;8.47;7.53;;;;;;;4.51;100.00;98651.53;5006467;28;20593;-73
2021/10/25 08:58:09;;;;;;;9.07;8.27;;;;;;;4.64;100.00;98640.06;5022357;28;20311;-74
2021/10/25 09:00:39;;;;;;;8.83;7.90;;;;;;;4.95;100.00;98633.53;5016588;28;20684;-73
2021/10/25 09:03:08;;;;;;;9.03;8.03;;;;;;;4.96;100.00;98622.06;5022448;28;20212;-75
2021/10/25 09:05:36;;;;;;;8.13;7.33;;;;;;;4.94;100.00;98627.47;5017142;28;20311;-75
2021/10/25 09:08:06;;;;;;;8.60;7.70;;;;;;;4.87;100.00;98623.59;4983270;28;20911;-71
2021/10/25 09:10:37;;;;;;;9.53;8.53;;;;;;;5.10;100.00;98614.00;4975456;28;20212;-73
2021/10/25 09:13:08;;;;;;;7.73;7.03;;;;;;;5.37;100.00;98615.53;5015714;28;20211;-73
2021/10/25 09:15:39;;;;;;;9.03;7.47;;;;;;;5.47;100.00;98619.13;5012660;28;20224;-71
2021/10/25 09:18:08;;;;;;;8.70;7.83;;;;;;;5.51;100.00;98617.13;5013343;28;20653;-72
2021/10/25 09:20:44;;;;;;;8.10;7.30;;;;;;;5.88;100.00;98629.25;5017682;28;20235;-71
2021/10/25 09:23:14;;;;;;;8.77;7.93;;;;;;;5.98;100.00;98624.97;5013965;28;20864;-75
2021/10/25 09:25:43;;;;;;;8.20;7.60;;;;;;;6.12;100.00;98613.38;4984349;28;20253;-72
2021/10/25 09:28:18;;;;;;;10.10;7.93;;;;;;;6.34;100.00;98623.06;5015084;28;20215;-72
2021/10/25 09:30:52;;;;;;;8.27;7.53;;;;;;;6.41;100.00;98607.59;5014841;28;20201;-71
2021/10/25 09:33:22;;;;;;;8.63;7.67;;;;;;;6.36;100.00;98610.59;5002374;28;20401;-71
2021/10/25 09:35:59;;;;;;;9.80;8.50;;;;;;;6.61;100.00;98584.09;5013790;28;20712;-72
2021/10/25 09:38:36;;;;;;;9.00;8.10;;;;;;;6.70;100.00;98585.16;5014382;28;20362;-74
2021/10/25 09:50:06;;;;;;;11.17;7.77;;;;;;;7.36;100.00;98582.34;4988811;28;20311;-74
2021/10/25 09:52:36;;;;;;;9.63;7.70;;;;;;;7.59;100.00;98589.28;5009633;28;20574;-73
2021/10/25 09:55:07;;;;;;;8.53;7.70;;;;;;;7.91;100.00;98597.06;5011144;28;20581;-74
2021/10/25 09:57:42;;;;;;;8.13;7.43;;;;;;;8.01;100.00;98593.66;4993966;28;20222;-75
2021/10/25 10:00:11;;;;;;;7.80;7.20;;;;;;;7.95;100.00;98584.44;5002026;28;20284;-71
2021/10/25 10:02:42;;;;;;;9.13;8.23;;;;;;;8.00;100.00;98584.88;5009310;28;20228;-74
2021/10/25 10:05:12;;;;;;;7.70;7.10;;;;;;;8.13;100.00;98579.38;4986842;28;20859;-72
2021/10/25 10:07:42;;;;;;;9.03;8.20;;;;;;;8.15;100.00;98588.00;5014005;28;20581;-71
2021/10/25 10:10:12;;;;;;;8.30;7.50;;;;;;;8.11;100.00;98582.13;5012890;28;20302;-72
2021/10/25 10:12:42;;;;;;;8.97;8.07;;;;;;;8.05;100.00;98581.84;4990250;28;20211;-73
2021/10/25 10:15:12;;;;;;;8.50;7.70;;;;;;;8.18;100.00;98586.91;4991899;28;20978;-72
2021/10/25 10:17:49;;;;;;;9.30;7.73;;;;;;;8.28;100.00;98590.41;5017265;28;20211;-73
2021/10/25 10:20:21;;;;;;;8.23;7.43;;;;;;;8.19;100.00;98585.94;5005269;28;20397;-73
2021/10/25 10:22:54;;;;;;;8.53;7.53;;;;;;;8.21;100.00;98587.47;5013698;28;20728;-74
2021/10/25 10:25:28;;;;;;;8.57;7.60;;;;;;;8.35;100.00;98598.63;4997182;28;20228;-74
2021/10/25 10:28:01;;;;;;;8.93;8.13;;;;;;;8.57;100.00;98580.91;4986877;28;20204;-76
2021/10/25 10:30:30;;;;;;;8.53;7.73;;;;;;;8.73;100.00;98564.50;5013385;28;20212;-75
2021/10/25 10:33:01;;;;;;;10.67;7.53;;;;;;;8.87;100.00;98571.19;5016185;28;20215;-73
2021/10/25 10:35:38;;;;;;;9.03;8.13;;;;;;;8.80;100.00;98574.41;5008665;28;20630;-69
2021/10/25 10:38:06;;;;;;;8.37;7.57;;;;;;;8.97;100.00;98566.75;5015021;28;20208;-71
2021/10/25 10:40:39;;;;;;;8.30;7.30;;;;;;;8.89;100.00;98562.13;5009342;28;20692;-71
2021/10/25 10:43:09;;;;;;;8.70;7.93;;;;;;;9.02;100.00;98564.50;4983893;28;20864;-73
2021/10/25 10:45:38;;;;;;;8.77;7.97;;;;;;;8.89;100.00;98564.78;5006936;28;20604;-71
2021/10/25 10:48:07;;;;;;;8.47;7.30;;;;;;;9.00;100.00;98563.00;5015584;28;20255;-71
2021/10/25 10:50:42;;;;;;;8.63;7.80;;;;;;;9.13;100.00;98566.16;5008009;28;20211;-71
2021/10/25 10:53:17;;;;;;;8.67;7.67;;;;;;;9.13;100.00;98550.31;5013022;28;20643;-71
2021/10/25 10:55:51;;;;;;;7.60;6.93;;;;;;;9.10;100.00;98548.78;5018475;28;20227;-73
2021/10/25 11:01:02;;;;;;;8.37;7.00;;;;;;;9.48;100.00;98550.69;5014114;28;20215;-73
2021/10/25 11:03:32;;;;;;;8.07;7.37;;;;;;;9.52;100.00;98558.16;5000012;28;20215;-73
2021/10/25 11:06:02;;;;;;;9.07;8.17;;;;;;;9.90;100.00;98563.50;5004290;28;20263;-72
2021/10/25 11:08:32;;;;;;;12.80;7.67;;;;;;;10.22;100.00;98561.38;5008699;28;20307;-73
2021/10/25 11:11:03;;;;;;;8.90;7.37;;;;;;;10.37;100.00;98557.25;5020679;28;20226;-75
2021/10/25 11:13:33;;;;;;;8.03;7.23;;;;;;;10.36;100.00;98552.94;4982962;28;20231;-71
2021/10/25 11:16:06;;;;;;;7.43;6.67;;;;;;;10.61;100.00;98553.22;5010235;28;20248;-74
2021/10/25 11:18:39;;;;;;;8.43;7.57;;;;;;;10.69;100.00;98552.47;4969512;28;20665;-72
2021/10/25 11:21:16;;;;;;;7.93;7.17;;;;;;;10.82;100.00;98552.94;5013793;28;20425;-72
2021/10/25 11:23:47;;;;;;;8.50;7.23;;;;;;;10.91;100.00;98534.44;5000391;28;20214;-75
2021/10/25 11:26:18;;;;;;;8.60;6.70;;;;;;;10.81;100.00;98535.34;5014715;28;20331;-73
2021/10/25 11:29:05;;;;;;;9.23;7.00;;;;;;;10.93;100.00;98533.31;5013711;28;20219;-75
2021/10/25 11:31:34;;;;;;;7.47;6.87;;;;;;;11.22;100.00;98532.22;5017871;28;20230;-76
2021/10/25 11:34:08;;;;;;;7.93;7.23;;;;;;;11.53;100.00;98518.44;4986898;28;20610;-72
2021/10/25 11:36:36;;;;;;;9.20;7.30;;;;;;;11.48;100.00;98522.56;5010005;28;20228;-73
2021/10/25 11:39:09;;;;;;;7.87;7.17;;;;;;;11.30;100.00;98518.13;5002959;28;23806;-71
2021/10/25 11:41:48;;;;;;;8.53;6.47;;;;;;;11.64;100.00;98508.56;5010705;28;20220;-74
2021/10/25 11:44:17;;;;;;;6.87;6.33;;;;;;;11.84;100.00;98493.22;5020649;28;20215;-73
2021/10/25 11:46:45;;;;;;;7.53;6.93;;;;;;;12.11;100.00;98497.50;5011440;28;20300;-74
2021/10/25 11:49:23;;;;;;;7.40;6.67;;;;;;;12.22;100.00;98508.81;4988784;28;20212;-73
2021/10/25 11:51:52;;;;;;;8.63;6.73;;;;;;;12.50;100.00;98503.22;5010780;28;20246;-75
2021/10/25 11:54:21;;;;;;;7.53;6.90;;;;;;;12.97;100.00;98499.94;5007731;28;20200;-70
2021/10/25 11:56:49;;;;;;;7.93;6.57;;;;;;;13.02;100.00;98502.91;5010838;28;20220;-75
2021/10/25 11:59:18;;;;;;;7.27;6.57;;;;;;;13.21;100.00;98494.75;5021632;28;20694;-74
2021/10/25 12:01:46;;;;;;;7.70;6.43;;;;;;;13.32;100.00;98486.44;5012201;28;20208;-74
2021/10/25 12:04:18;;;;;;;7.30;6.70;;;;;;;13.93;100.00;98490.44;4990149;28;20261;-71
2021/10/25 12:06:54;;;;;;;6.73;6.00;;;;;;;13.69;100.00;98494.84;5008490;28;20570;-76
2021/10/25 12:09:22;;;;;;;6.90;6.20;;;;;;;13.95;100.00;98488.41;5009510;28;20207;-72
2021/10/25 12:11:54;;;;;;;7.63;6.83;;;;;;;14.20;95.92;98483.78;4998571;28;20207;-72
2021/10/25 12:14:27;;;;;;;7.40;6.43;;;;;;;14.21;89.71;98485.44;5013574;28;20424;-71
2021/10/25 12:16:55;;;;;;;7.30;6.70;;;;;;;13.84;96.82;98485.13;5009810;28;20672;-75
2021/10/25 12:19:25;;;;;;;7.00;6.50;;;;;;;13.78;91.55;98471.66;4992299;28;20212;-75
2021/10/25 12:21:54;;;;;;;6.47;5.90;;;;;;;13.44;94.11;98477.09;5011178;28;20207;-74
2021/10/25 12:24:23;;;;;;;6.47;5.90;;;;;;;13.29;92.95;98481.44;5019883;28;20207;-70
2021/10/25 12:26:59;;;;;;;6.70;6.10;;;;;;;13.32;97.40;98476.59;5007031;28;20578;-70
2021/10/25 12:29:27;;;;;;;6.53;6.03;;;;;;;13.24;93.63;98473.13;5011982;28;20208;-71
2021/10/25 12:32:07;;;;;;;7.23;6.53;;;;;;;13.98;87.22;98461.41;5015539;28;20323;-71
2021/10/25 12:34:51;;;;;;;6.70;6.10;;;;;;;13.86;90.34;98471.63;5010440;28;20261;-75
2021/10/25 12:37:24;;;;;;;6.10;5.60;;;;;;;13.71;92.40;98463.53;5019754;28;20216;-74
2021/10/25 12:39:53;;;;;;;6.43;5.83;;;;;;;13.71;97.13;98466.19;5020611;28;20341;-73
2021/10/25 12:42:22;;;;;;;6.27;5.77;;;;;;;13.72;99.85;98467.84;5009299;28;20783;-71
2021/10/25 12:44:53;;;;;;;7.13;5.17;;;;;;;14.03;92.59;98462.56;5014953;28;20211;-72
2021/10/25 12:47:22;;;;;;;6.17;5.77;;;;;;;14.12;85.94;98455.34;5020531;28;20239;-71
2021/10/25 12:49:53;;;;;;;6.20;5.70;;;;;;;13.96;92.50;98458.09;4984444;28;20689;-71
2021/10/25 12:52:21;;;;;;;7.57;6.97;;;;;;;13.44;93.40;98457.63;5015708;28;20204;-73
2021/10/25 12:54:51;;;;;;;6.27;5.87;;;;;;;13.66;91.99;98466.72;5020275;28;20700;-74
2021/10/25 12:57:21;;;;;;;6.70;6.00;;;;;;;13.57;91.10;98465.06;5004662;28;20739;-71
2021/10/25 13:00:09;;;;;;;7.30;6.50;;;;;;;13.51;87.79;98458.63;5019234;28;20227;-74
2021/10/25 13:02:46;;;;;;;7.80;5.90;;;;;;;13.38;92.22;98456.47;5017043;28;20235;-75
2021/10/25 13:05:17;;;;;;;6.30;5.70;;;;;;;13.44;91.22;98452.31;5020851;28;20663;-75